Time;durP1;ratioP1;P1;durP2;ratioP2;P2;SDS_P1;SDS_P2;PMS_P1;PMS_P2;Temp;Humidity;BMP_temperature;BMP_pressure;BME280_temperature;BME280_humidity;BME280_pressure;Samples;Min_cycle;Max_cycle;Signal;HPM_P1;HPM_P2
2021/03/14 00:01:30;;;;;;;;;;;;;;;0.25;100.00;91906.31;1440644;39;20218;31
2021/03/14 00:03:47;;;;;;;;;;;;;;;0.19;100.00;91923.59;1367995;39;20888;31
2021/03/14 00:04:49;;;;;;;;;;;;;;;0.23;99.62;91924.34;1315747;39;21138;31
2021/03/14 00:07:17;;;;;;;;;;;;;;;0.23;100.00;91924.34;1057409;49;20188;-84
2021/03/14 00:08:18;;;;;;;;;;;;;;;0.22;98.66;91922.84;1048424;56;20133;-85
2021/03/14 00:09:18;;;;;;;;;;;;;;;0.17;97.84;91917.97;1046796;56;20113;-85
2021/03/14 00:10:19;;;;;;;;;;;;;;;0.12;98.56;91912.34;1042859;57;20142;-86
2021/03/14 00:11:19;;;;;;;;;;;;;;;0.17;98.84;91925.09;1048592;57;20156;-84
2021/03/14 00:12:20;;;;;;;;;;;;;;;0.16;99.26;91918.34;1052859;56;20188;-84
2021/03/14 00:13:30;;;;;;;;;;;;;;;0.10;100.00;91919.88;1052777;56;20345;-83
2021/03/14 00:14:31;;;;;;;;;;;;;;;0.11;99.99;91927.38;1048694;56;20233;-84
2021/03/14 00:15:31;;;;;;;;;;;;;;;-0.01;100.00;91919.88;1046474;57;20141;-85
2021/03/14 00:16:32;;;;;;;;;;;;;;;-0.06;100.00;91915.75;1048708;57;20246;-85
2021/03/14 00:17:32;;;;;;;;;;;;;;;-0.04;100.00;91908.25;1050368;56;20156;-86
2021/03/14 00:18:36;;;;;;;;;;;;;;;-0.01;100.00;91904.88;1048666;57;20110;-85
2021/03/14 00:19:37;;;;;;;;;;;;;;;0.02;100.00;91910.50;1048839;56;20196;-85
2021/03/14 00:20:37;;;;;;;;;;;;;;;-0.03;100.00;91904.50;1049417;56;20618;-86
2021/03/14 00:21:38;;;;;;;;;;;;;;;-0.03;100.00;91911.63;1050998;56;20148;-85
2021/03/14 00:22:38;;;;;;;;;;;;;;;-0.02;100.00;91913.87;1052612;56;20111;-83
2021/03/14 00:23:38;;;;;;;;;;;;;;;-0.07;100.00;91916.16;1048792;56;20176;-86
2021/03/14 00:24:39;;;;;;;;;;;;;;;-0.09;100.00;91929.66;1046713;57;20222;-85
2021/03/14 00:25:39;;;;;;;;;;;;;;;-0.10;100.00;91932.66;1048836;56;20193;-85
2021/03/14 00:26:41;;;;;;;;;;;;;;;-0.10;100.00;91933.41;1048551;57;20144;-85
2021/03/14 00:27:44;;;;;;;;;;;;;;;-0.07;100.00;91937.16;1048826;56;20141;-85
2021/03/14 00:28:44;;;;;;;;;;;;;;;0.03;100.00;91935.63;1049972;56;20648;-87
2021/03/14 00:29:44;;;;;;;;;;;;;;;-0.04;100.00;91928.53;1048778;57;20106;-85
2021/03/14 00:30:46;;;;;;;;;;;;;;;-0.04;100.00;91939.03;1046584;57;20145;-85
2021/03/14 00:31:46;;;;;;;;;;;;;;;-0.09;100.00;91934.91;1048684;56;20200;-85
2021/03/14 00:32:47;;;;;;;;;;;;;;;-0.11;100.00;91934.53;1048381;56;20109;-84
2021/03/14 00:33:47;;;;;;;;;;;;;;;-0.17;100.00;91936.03;1048785;56;20246;-84
2021/03/14 00:34:48;;;;;;;;;;;;;;;-0.16;100.00;91947.31;1052963;56;20733;-84
2021/03/14 00:35:48;;;;;;;;;;;;;;;-0.11;100.00;91942.41;1050857;56;20171;-84
2021/03/14 00:36:48;;;;;;;;;;;;;;;-0.02;100.00;91947.28;1050825;56;20692;-86
2021/03/14 00:37:49;;;;;;;;;;;;;;;-0.05;100.00;91961.91;1050768;56;20184;-85
2021/03/14 00:38:50;;;;;;;;;;;;;;;-0.05;100.00;91964.53;1050721;56;20113;-83
2021/03/14 00:39:50;;;;;;;;;;;;;;;-0.02;100.00;91969.03;1050709;56;20229;-84
2021/03/14 00:40:51;;;;;;;;;;;;;;;-0.11;100.00;91957.41;1046589;57;20157;-84
2021/03/14 00:41:51;;;;;;;;;;;;;;;-0.13;100.00;91962.28;1050809;56;20133;-86
2021/03/14 00:42:56;;;;;;;;;;;;;;;-0.11;100.00;91962.66;1048749;56;20164;-83
2021/03/14 00:43:56;;;;;;;;;;;;;;;-0.10;100.00;91966.78;1046810;57;20200;-84
2021/03/14 00:44:57;;;;;;;;;;;;;;;-0.08;100.00;91965.31;1048323;57;20128;-85
2021/03/14 00:45:57;;;;;;;;;;;;;;;-0.09;100.00;91976.94;1048593;57;20168;-86
2021/03/14 00:46:58;;;;;;;;;;;;;;;-0.10;100.00;91969.41;1048480;56;20172;-84
2021/03/14 00:47:59;;;;;;;;;;;;;;;-0.08;100.00;91970.56;1048489;57;20760;-84
2021/03/14 00:49:00;;;;;;;;;;;;;;;-0.10;100.00;91969.41;1050379;56;20744;-83
2021/03/14 00:50:00;;;;;;;;;;;;;;;-0.06;100.00;91989.31;1048717;57;20110;-84
2021/03/14 00:51:01;;;;;;;;;;;;;;;-0.09;100.00;91984.81;1046452;57;20282;-85
2021/03/14 00:52:01;;;;;;;;;;;;;;;-0.09;100.00;91969.06;1050727;56;20199;-84
2021/03/14 00:53:02;;;;;;;;;;;;;;;-0.09;100.00;91987.44;1046159;57;20172;-85
2021/03/14 00:54:02;;;;;;;;;;;;;;;-0.10;100.00;91978.03;1046598;57;20102;-84
2021/03/14 00:55:03;;;;;;;;;;;;;;;-0.08;99.94;91967.19;1051433;56;20601;-88
2021/03/14 00:56:04;;;;;;;;;;;;;;;-0.08;100.00;91975.06;1050478;56;20172;-86
2021/03/14 00:57:05;;;;;;;;;;;;;;;-0.13;100.00;91970.94;1050573;56;20133;-86
2021/03/14 00:58:06;;;;;;;;;;;;;;;-0.14;100.00;91981.78;1050192;56;20155;-85
2021/03/14 00:59:06;;;;;;;;;;;;;;;-0.15;100.00;91975.78;1047609;57;20154;-85
2021/03/14 01:00:07;;;;;;;;;;;;;;;-0.12;99.80;91969.81;1048382;57;20097;-85
2021/03/14 01:01:07;;;;;;;;;;;;;;;-0.12;100.00;91982.94;1050612;56;20113;-85
2021/03/14 01:02:08;;;;;;;;;;;;;;;-0.11;98.57;91968.66;1050722;56;20161;-85
2021/03/14 01:03:08;;;;;;;;;;;;;;;-0.14;99.92;91955.53;1048572;57;20184;-85
2021/03/14 01:04:08;;;;;;;;;;;;;;;-0.12;99.67;91956.66;1050815;56;20106;-86
2021/03/14 01:05:09;;;;;;;;;;;;;;;-0.13;100.00;91964.91;1048103;56;20118;-83
2021/03/14 01:06:10;;;;;;;;;;;;;;;-0.11;99.77;91963.41;1048646;56;20137;-84
2021/03/14 01:07:10;;;;;;;;;;;;;;;-0.14;100.00;91966.78;1048939;56;20187;-86
2021/03/14 01:08:11;;;;;;;;;;;;;;;-0.21;100.00;91966.06;1047258;56;20145;-85
2021/03/14 01:09:12;;;;;;;;;;;;;;;-0.07;99.78;91963.41;1049156;56;20184;-85
2021/03/14 01:10:12;;;;;;;;;;;;;;;-0.07;99.67;91971.31;1050914;56;20164;-84
2021/03/14 01:11:13;;;;;;;;;;;;;;;-0.17;100.00;91975.44;1047563;57;20170;-86
2021/03/14 01:12:13;;;;;;;;;;;;;;;-0.20;100.00;91967.56;1046939;57;20125;-85
2021/03/14 01:13:14;;;;;;;;;;;;;;;-0.22;100.00;91960.06;1048951;56;20102;-85
2021/03/14 01:14:14;;;;;;;;;;;;;;;-0.20;100.00;91968.31;1049142;56;20165;-85
2021/03/14 01:15:15;;;;;;;;;;;;;;;-0.24;100.00;91972.81;1051106;56;20669;-87
2021/03/14 01:16:15;;;;;;;;;;;;;;;-0.16;100.00;91973.56;1051334;56;20233;-85
2021/03/14 01:17:16;;;;;;;;;;;;;;;-0.27;100.00;91966.41;1049030;56;20166;-86
2021/03/14 01:18:17;;;;;;;;;;;;;;;-0.29;100.00;91966.06;1048862;56;20674;-85
2021/03/14 01:20:33;;;;;;;;;;;;;;;-0.31;100.00;91965.69;1065738;48;20100;-83
2021/03/14 01:22:59;;;;;;;;;;;;;;;-0.25;100.00;91979.19;1499084;39;20288;-84
2021/03/14 01:24:01;;;;;;;;;;;;;;;-0.29;100.00;91970.56;1080201;39;20160;31
2021/03/14 01:26:19;;;;;;;;;;;;;;;-0.23;100.00;91981.44;1123022;39;20212;31
2021/03/14 01:27:23;;;;;;;;;;;;;;;-0.27;100.00;91968.28;1423013;39;21029;31
2021/03/14 01:28:23;;;;;;;;;;;;;;;-0.20;100.00;91970.94;1052885;48;20824;-86
2021/03/14 01:29:24;;;;;;;;;;;;;;;-0.26;100.00;91967.94;1046320;57;20129;-85
2021/03/14 01:30:28;;;;;;;;;;;;;;;-0.28;100.00;91974.69;1095379;39;20157;31
2021/03/14 01:31:43;;;;;;;;;;;;;;;-0.26;100.00;91972.44;1347959;39;21445;31
2021/03/14 01:32:57;;;;;;;;;;;;;;;-0.28;100.00;91970.16;1316197;39;20233;31
2021/03/14 01:33:59;;;;;;;;;;;;;;;-0.34;100.00;91961.19;1431532;39;20555;31
2021/03/14 01:35:03;;;;;;;;;;;;;;;-0.33;100.00;91965.31;1285981;39;20199;31
2021/03/14 01:36:07;;;;;;;;;;;;;;;-0.40;100.00;91956.66;1427602;39;21418;31
2021/03/14 01:37:11;;;;;;;;;;;;;;;-0.39;100.00;91964.19;1432613;39;20136;31
2021/03/14 01:43:00;;;;;;;;;;;;;;;-0.30;100.00;91958.56;1433446;39;20268;31
2021/03/14 01:46:13;;;;;;;;;;;;;;;-0.30;100.00;91961.19;1298658;39;21767;31
2021/03/14 01:47:27;;;;;;;;;;;;;;;-0.39;100.00;91950.31;1378172;39;20265;31
2021/03/14 01:50:09;;;;;;;;;;;;;;;-0.35;100.00;91946.56;1379781;39;20174;31
2021/03/14 01:51:10;;;;;;;;;;;;;;;-0.28;100.00;91951.03;1050820;49;20307;-84
2021/03/14 01:52:10;;;;;;;;;;;;;;;-0.23;100.00;91950.66;1041465;57;20297;-84
2021/03/14 01:53:14;;;;;;;;;;;;;;;-0.18;100.00;91958.16;1389900;40;20208;31
2021/03/14 01:54:16;;;;;;;;;;;;;;;-0.29;100.00;91952.19;1277411;39;20176;31
2021/03/14 01:56:23;;;;;;;;;;;;;;;-0.23;100.00;91958.53;1148280;39;20207;31
2021/03/14 01:57:27;;;;;;;;;;;;;;;-0.30;100.00;91956.69;1212042;39;20204;31
2021/03/14 01:58:41;;;;;;;;;;;;;;;-0.49;100.00;91946.53;1412794;40;20388;31
2021/03/14 01:59:45;;;;;;;;;;;;;;;-0.38;100.00;91960.44;1149237;39;20219;31
2021/03/14 02:02:17;;;;;;;;;;;;;;;-0.42;100.00;91966.81;1435127;39;21305;31
2021/03/14 02:03:22;;;;;;;;;;;;;;;-0.40;100.00;91964.53;1282763;39;20614;31
2021/03/14 02:05:29;;;;;;;;;;;;;;;-0.36;100.00;91968.66;1302657;39;20213;31
2021/03/14 02:06:31;;;;;;;;;;;;;;;-0.30;100.00;91976.94;1426622;39;20590;31
2021/03/14 02:07:34;;;;;;;;;;;;;;;-0.41;100.00;91971.66;1342454;39;21481;-86
2021/03/14 02:08:34;;;;;;;;;;;;;;;-0.48;100.00;91969.06;1052085;49;20170;-84
2021/03/14 02:09:36;;;;;;;;;;;;;;;-0.42;100.00;91964.94;1042773;56;20229;-85
2021/03/14 02:10:40;;;;;;;;;;;;;;;-0.45;100.00;91959.66;1220080;40;20224;31
2021/03/14 02:11:43;;;;;;;;;;;;;;;-0.43;100.00;91958.19;1043487;49;20154;-84
2021/03/14 02:13:51;;;;;;;;;;;;;;;-0.40;100.00;91957.41;1120630;39;20176;-86
2021/03/14 02:17:13;;;;;;;;;;;;;;;-0.32;100.00;91958.16;1427522;39;20533;31
2021/03/14 02:18:17;;;;;;;;;;;;;;;-0.37;100.00;91963.81;1420595;39;22283;31
2021/03/14 02:20:45;;;;;;;;;;;;;;;-0.33;100.00;91962.69;1436876;39;20248;31
2021/03/14 02:21:49;;;;;;;;;;;;;;;-0.31;100.00;91965.69;1422242;39;21961;31
2021/03/14 02:24:38;;;;;;;;;;;;;;;-0.34;100.00;91966.44;1485376;39;20565;31
2021/03/14 02:25:52;;;;;;;;;;;;;;;-0.38;100.00;91970.94;1350600;39;20267;31
2021/03/14 02:27:01;;;;;;;;;;;;;;;-0.42;100.00;91980.69;1426435;39;20247;31
2021/03/14 02:29:43;;;;;;;;;;;;;;;-0.40;100.00;91980.28;1426047;39;22181;31
2021/03/14 02:32:25;;;;;;;;;;;;;;;-0.33;100.00;91988.19;1429063;39;20473;31
2021/03/14 02:33:39;;;;;;;;;;;;;;;-0.34;100.00;91994.56;1425593;39;21350;31
2021/03/14 02:34:46;;;;;;;;;;;;;;;-0.33;100.00;91996.81;1439122;39;20280;31
2021/03/14 02:36:00;;;;;;;;;;;;;;;-0.34;100.00;91997.19;1292736;39;20589;31
2021/03/14 02:37:14;;;;;;;;;;;;;;;-0.30;100.00;91997.94;1422557;39;21236;31
2021/03/14 02:38:18;;;;;;;;;;;;;;;-0.33;100.00;92006.56;1422778;39;20282;31
2021/03/14 02:39:23;;;;;;;;;;;;;;;-0.35;100.00;92006.94;1423832;39;20225;-86
2021/03/14 02:42:15;;;;;;;;;;;;;;;-0.39;100.00;92000.94;1491561;39;20214;31
2021/03/14 02:43:19;;;;;;;;;;;;;;;-0.41;100.00;92007.66;1426185;39;20242;31
2021/03/14 02:46:43;;;;;;;;;;;;;;;-0.40;100.00;92015.16;1442635;39;21809;31
2021/03/14 02:47:45;;;;;;;;;;;;;;;-0.36;100.00;92020.41;1428735;39;20584;31
2021/03/14 02:50:56;;;;;;;;;;;;;;;-0.44;100.00;92021.53;1442736;39;20569;31
2021/03/14 02:52:10;;;;;;;;;;;;;;;-0.42;100.00;92035.06;1421255;39;20199;31
2021/03/14 02:53:24;;;;;;;;;;;;;;;-0.49;100.00;92032.41;1422027;39;20553;31
2021/03/14 02:55:57;;;;;;;;;;;;;;;-0.38;100.00;92033.19;1433016;39;20210;31
2021/03/14 02:57:01;;;;;;;;;;;;;;;-0.34;100.00;92036.56;1431273;39;20401;31
2021/03/14 03:00:13;;;;;;;;;;;;;;;-0.26;100.00;92041.44;1430097;39;20222;31
2021/03/14 03:02:20;;;;;;;;;;;;;;;-0.40;100.00;92030.16;1443552;39;20222;31
2021/03/14 03:03:34;;;;;;;;;;;;;;;-0.45;100.00;92027.91;1430172;39;20304;31
2021/03/14 03:04:38;;;;;;;;;;;;;;;-0.38;100.00;92036.56;1426484;39;20239;31
2021/03/14 03:05:52;;;;;;;;;;;;;;;-0.47;100.00;92030.16;1419873;39;21326;31
2021/03/14 03:06:57;;;;;;;;;;;;;;;-0.54;100.00;92036.16;1419379;39;20184;31
2021/03/14 03:08:01;;;;;;;;;;;;;;;-0.51;100.00;92038.78;1415808;39;20533;31
2021/03/14 03:09:05;;;;;;;;;;;;;;;-0.47;100.00;92040.66;1429459;39;20115;31
2021/03/14 03:10:09;;;;;;;;;;;;;;;-0.51;100.00;92043.28;1363828;39;20215;31
2021/03/14 03:11:14;;;;;;;;;;;;;;;-0.43;100.00;92049.31;1428550;39;20614;31
2021/03/14 03:12:21;;;;;;;;;;;;;;;-0.50;100.00;92047.41;1420688;39;20279;31
2021/03/14 03:13:35;;;;;;;;;;;;;;;-0.51;100.00;92044.03;1423769;39;21322;31
2021/03/14 03:14:49;;;;;;;;;;;;;;;-0.48;100.00;92044.41;1418997;39;20223;31
2021/03/14 03:15:55;;;;;;;;;;;;;;;-0.46;100.00;92040.28;1426668;39;20227;31
2021/03/14 03:16:57;;;;;;;;;;;;;;;-0.41;100.00;92050.41;1352998;39;20148;31
2021/03/14 03:18:02;;;;;;;;;;;;;;;-0.54;100.00;92042.13;1420556;39;20155;31
2021/03/14 03:19:06;;;;;;;;;;;;;;;-0.45;100.00;92054.16;1292585;39;20206;31
2021/03/14 03:20:20;;;;;;;;;;;;;;;-0.51;100.00;92056.41;1431576;39;20963;31
2021/03/14 03:21:22;;;;;;;;;;;;;;;-0.57;99.95;92053.41;1430962;39;20289;31
2021/03/14 03:22:26;;;;;;;;;;;;;;;-0.58;100.00;92054.50;1432872;39;20229;31
2021/03/14 03:23:41;;;;;;;;;;;;;;;-0.63;100.00;92069.88;1366255;39;21336;31
2021/03/14 03:24:43;;;;;;;;;;;;;;;-0.68;100.00;92070.97;1407546;40;20259;31
2021/03/14 03:25:46;;;;;;;;;;;;;;;-0.68;100.00;92065.72;1427702;39;20344;31
2021/03/14 03:26:50;;;;;;;;;;;;;;;-0.65;100.00;92075.50;1419545;39;21179;31
2021/03/14 03:27:52;;;;;;;;;;;;;;;-0.62;100.00;92073.97;1419258;39;20204;31
2021/03/14 03:29:06;;;;;;;;;;;;;;;-0.62;100.00;92073.97;1418218;39;20243;31
2021/03/14 03:30:12;;;;;;;;;;;;;;;-0.73;100.00;92084.47;1431533;39;20136;31
2021/03/14 03:31:12;;;;;;;;;;;;;;;-0.67;100.00;92079.59;1055308;48;20287;-84
2021/03/14 03:32:16;;;;;;;;;;;;;;;-0.68;100.00;92083.34;1306386;39;20239;31
2021/03/14 03:33:19;;;;;;;;;;;;;;;-0.68;100.00;92083.34;1412574;39;20112;31
2021/03/14 03:35:25;;;;;;;;;;;;;;;-0.68;100.00;92083.34;1421943;39;20271;31
2021/03/14 03:36:29;;;;;;;;;;;;;;;-0.65;100.00;92082.63;1427598;39;20207;31
2021/03/14 03:38:35;;;;;;;;;;;;;;;-0.64;100.00;92090.09;1434929;39;20219;31
2021/03/14 03:39:39;;;;;;;;;;;;;;;-0.57;99.09;92094.63;1426531;39;21112;31
2021/03/14 03:40:43;;;;;;;;;;;;;;;-0.61;99.84;92088.63;1418758;39;21667;31
2021/03/14 03:41:57;;;;;;;;;;;;;;;-0.66;99.60;92086.34;1428575;39;20535;31
2021/03/14 03:43:11;;;;;;;;;;;;;;;-0.64;99.82;92092.72;1425906;39;20226;31
2021/03/14 03:44:17;;;;;;;;;;;;;;;-0.64;100.00;92084.13;1415598;39;22532;31
2021/03/14 03:45:21;;;;;;;;;;;;;;;-0.64;100.00;92078.88;1409432;40;20592;31
2021/03/14 03:46:35;;;;;;;;;;;;;;;-0.68;100.00;92067.59;1360160;39;21387;31
2021/03/14 03:47:49;;;;;;;;;;;;;;;-0.73;100.00;92078.47;1428275;39;20255;31
2021/03/14 03:48:56;;;;;;;;;;;;;;;-0.76;100.00;92079.94;1420726;39;20247;-86
2021/03/14 03:50:01;;;;;;;;;;;;;;;-0.68;100.00;92080.72;1236649;39;20224;31
2021/03/14 03:51:05;;;;;;;;;;;;;;;-0.65;100.00;92093.12;1429755;39;20265;31
2021/03/14 03:52:06;;;;;;;;;;;;;;;-0.58;100.00;92093.12;1054426;48;20175;-86
2021/03/14 03:53:10;;;;;;;;;;;;;;;-0.57;99.11;92107.75;1396884;39;20176;31
2021/03/14 03:54:13;;;;;;;;;;;;;;;-0.60;99.58;92104.00;1057212;49;20261;-85
2021/03/14 03:55:17;;;;;;;;;;;;;;;-0.51;99.37;92108.91;1328870;39;21317;31
2021/03/14 03:56:18;;;;;;;;;;;;;;;-0.60;99.04;92101.38;1053927;48;21062;-86
2021/03/14 03:57:20;;;;;;;;;;;;;;;-0.54;96.54;92107.00;1051607;56;20349;-86
2021/03/14 03:58:24;;;;;;;;;;;;;;;-0.59;97.37;92107.38;1378270;39;20908;31
2021/03/14 03:59:26;;;;;;;;;;;;;;;-0.58;98.37;92114.88;1048342;49;20218;-86
2021/03/14 04:00:27;;;;;;;;;;;;;;;-0.59;98.84;92115.25;1045144;56;20194;-86
2021/03/14 04:01:28;;;;;;;;;;;;;;;-0.55;99.13;92122.00;1042614;57;20102;-86
2021/03/14 04:02:28;;;;;;;;;;;;;;;-0.55;95.99;92137.00;1044596;57;20154;-85
2021/03/14 04:04:33;;;;;;;;;;;;;;;-0.52;96.68;92141.53;1058495;48;20182;-84
2021/03/14 04:05:33;;;;;;;;;;;;;;;-0.50;96.24;92147.12;1050610;56;20144;-85
2021/03/14 04:07:45;;;;;;;;;;;;;;;-0.58;95.90;92154.22;1440123;39;20233;31
2021/03/14 04:08:46;;;;;;;;;;;;;;;-0.60;96.99;92159.09;1059827;48;20173;-84
2021/03/14 04:09:47;;;;;;;;;;;;;;;-0.57;97.09;92157.59;1048604;56;20680;-85
2021/03/14 04:10:48;;;;;;;;;;;;;;;-0.59;98.59;92178.97;1050801;56;20133;-85
2021/03/14 04:11:49;;;;;;;;;;;;;;;-0.74;99.20;92182.66;1050839;56;20199;-87
2021/03/14 04:15:16;;;;;;;;;;;;;;;-0.91;100.00;92185.94;1155638;39;20120;31
2021/03/14 04:16:18;;;;;;;;;;;;;;;-0.91;100.00;92188.56;1433175;39;21092;31
2021/03/14 04:17:19;;;;;;;;;;;;;;;-0.92;100.00;92192.28;1053611;49;20132;-85
2021/03/14 04:18:20;;;;;;;;;;;;;;;-0.90;100.00;92208.41;1040375;57;20127;-85
2021/03/14 04:19:22;;;;;;;;;;;;;;;-0.90;100.00;92218.91;1042333;57;20107;-86
2021/03/14 04:20:32;;;;;;;;;;;;;;;-0.96;100.00;92220.38;1044143;57;20165;-84
2021/03/14 04:21:33;;;;;;;;;;;;;;;-0.95;100.00;92222.62;1045124;57;20134;-85
2021/03/14 04:22:33;;;;;;;;;;;;;;;-0.95;100.00;92216.63;1044824;56;20214;-84
2021/03/14 04:23:36;;;;;;;;;;;;;;;-0.88;100.00;92227.94;1044783;57;20157;-87
2021/03/14 04:24:36;;;;;;;;;;;;;;;-0.96;100.00;92223.75;1044801;57;20121;-84
2021/03/14 04:25:37;;;;;;;;;;;;;;;-0.94;100.00;92236.50;1044912;57;20161;-85
2021/03/14 04:26:41;;;;;;;;;;;;;;;-0.96;100.00;92228.25;1046724;57;20740;-86
2021/03/14 04:30:03;;;;;;;;;;;;;;;-1.00;100.00;92257.06;1393909;39;20186;31
2021/03/14 04:31:04;;;;;;;;;;;;;;;-1.01;99.91;92245.03;1051497;49;20132;-84
2021/03/14 04:32:05;;;;;;;;;;;;;;;-1.04;100.00;92251.03;1049092;56;20866;-84
2021/03/14 04:33:09;;;;;;;;;;;;;;;-1.06;98.81;92258.50;1046299;57;20161;-85
2021/03/14 04:34:10;;;;;;;;;;;;;;;-1.07;99.54;92242.03;1048707;56;20120;-82
2021/03/14 04:35:11;;;;;;;;;;;;;;;-1.03;98.34;92242.81;1048888;57;20133;-81
2021/03/14 04:36:13;;;;;;;;;;;;;;;-1.03;98.05;92242.81;1046551;56;20157;-83
2021/03/14 04:37:14;;;;;;;;;;;;;;;-1.06;98.18;92240.16;1048408;57;20101;-83
2021/03/14 04:38:14;;;;;;;;;;;;;;;-1.04;98.78;92241.31;1048676;57;20165;-83
2021/03/14 04:39:15;;;;;;;;;;;;;;;-1.04;98.85;92249.16;1048464;57;20153;-82
2021/03/14 04:40:16;;;;;;;;;;;;;;;-1.02;97.84;92254.03;1046559;56;20106;-82
2021/03/14 04:41:17;;;;;;;;;;;;;;;-1.06;96.74;92253.25;1050764;56;20215;-82
2021/03/14 04:42:19;;;;;;;;;;;;;;;-1.06;97.00;92245.38;1048385;56;20189;-84
2021/03/14 04:43:20;;;;;;;;;;;;;;;-1.00;97.49;92243.97;1046802;57;20771;-84
2021/03/14 04:44:21;;;;;;;;;;;;;;;-1.06;97.36;92248.00;1046488;56;20208;-83
2021/03/14 04:45:23;;;;;;;;;;;;;;;-1.09;97.36;92254.75;1047626;57;20268;-84
2021/03/14 04:46:23;;;;;;;;;;;;;;;-1.11;96.72;92258.84;1048936;56;20124;-84
2021/03/14 04:47:23;;;;;;;;;;;;;;;-1.11;98.06;92254.34;1049159;56;20125;-83
2021/03/14 04:49:28;;;;;;;;;;;;;;;-1.05;97.99;92265.28;1065141;48;20101;-81
2021/03/14 04:50:29;;;;;;;;;;;;;;;-1.11;97.60;92258.84;1052361;56;20105;-83
2021/03/14 04:52:34;;;;;;;;;;;;;;;-1.19;97.72;92254.66;1056264;48;20120;-82
2021/03/14 04:53:34;;;;;;;;;;;;;;;-1.18;98.69;92248.31;1056269;56;20116;-84
2021/03/14 04:54:36;;;;;;;;;;;;;;;-1.12;96.92;92265.22;1058465;39;20195;31
2021/03/14 04:55:37;;;;;;;;;;;;;;;-1.17;95.66;92263.69;1054068;49;20100;-86
2021/03/14 04:56:38;;;;;;;;;;;;;;;-1.17;96.37;92247.94;1053377;56;20132;-83
2021/03/14 04:57:40;;;;;;;;;;;;;;;-1.11;96.79;92256.22;1051565;56;20196;-83
2021/03/14 04:58:41;;;;;;;;;;;;;;;-1.08;97.60;92256.25;1050905;56;20164;-84
2021/03/14 04:59:42;;;;;;;;;;;;;;;-1.22;96.39;92258.03;1050508;56;20196;-83
2021/03/14 05:00:42;;;;;;;;;;;;;;;-1.20;96.56;92259.16;1048834;56;20113;-84
2021/03/14 05:01:44;;;;;;;;;;;;;;;-1.23;97.88;92259.13;1046692;57;21125;-84
2021/03/14 05:02:47;;;;;;;;;;;;;;;-1.26;97.36;92265.84;1048820;56;20144;-82
2021/03/14 05:03:52;;;;;;;;;;;;;;;-1.28;98.85;92271.44;1048624;56;20169;-82
2021/03/14 05:04:53;;;;;;;;;;;;;;;-1.24;98.63;92273.34;1050714;56;20106;-85
2021/03/14 05:05:54;;;;;;;;;;;;;;;-1.24;98.55;92274.09;1050599;56;20105;-86
2021/03/14 05:06:55;;;;;;;;;;;;;;;-1.22;97.46;92281.63;1052911;56;20117;-82
2021/03/14 05:07:57;;;;;;;;;;;;;;;-1.24;97.39;92281.97;1052919;56;20754;-83
2021/03/14 05:08:57;;;;;;;;;;;;;;;-1.20;98.02;92285.38;1052782;56;20139;-83
2021/03/14 05:09:58;;;;;;;;;;;;;;;-1.24;97.87;92289.06;1050211;56;20132;-84
2021/03/14 05:10:59;;;;;;;;;;;;;;;-1.24;97.46;92295.06;1046323;57;20217;-83
2021/03/14 05:12:00;;;;;;;;;;;;;;;-1.24;96.92;92286.44;1044488;57;21283;-83
2021/03/14 05:13:01;;;;;;;;;;;;;;;-1.28;98.26;92294.28;1044716;56;20193;-85
2021/03/14 05:14:03;;;;;;;;;;;;;;;-1.30;98.91;92294.66;1046634;56;20145;-82
2021/03/14 05:15:03;;;;;;;;;;;;;;;-1.23;100.00;92301.06;1050728;56;20148;-84
2021/03/14 05:16:04;;;;;;;;;;;;;;;-1.21;100.00;92293.59;1048709;56;20130;-84
2021/03/14 05:17:05;;;;;;;;;;;;;;;-1.25;100.00;92298.06;1046408;56;20184;-82
2021/03/14 05:18:08;;;;;;;;;;;;;;;-1.20;100.00;92298.47;1048651;56;20147;-86
2021/03/14 05:19:09;;;;;;;;;;;;;;;-1.22;100.00;92307.84;1051078;56;20179;-84
2021/03/14 05:20:12;;;;;;;;;;;;;;;-1.27;100.00;92309.66;1049550;56;20149;-82
2021/03/14 05:21:14;;;;;;;;;;;;;;;-1.19;100.00;92317.56;1048791;56;20105;-83
2021/03/14 05:22:17;;;;;;;;;;;;;;;-1.25;100.00;92311.16;1050799;56;20193;-83
2021/03/14 05:23:18;;;;;;;;;;;;;;;-1.30;100.00;92320.13;1052103;56;20164;-84
2021/03/14 05:24:18;;;;;;;;;;;;;;;-1.27;100.00;92316.78;1052445;56;20097;-83
2021/03/14 05:25:19;;;;;;;;;;;;;;;-1.18;100.00;92309.38;1052840;56;20102;-83
2021/03/14 05:26:20;;;;;;;;;;;;;;;-1.10;100.00;92313.56;1052923;56;20178;-83
2021/03/14 05:27:20;;;;;;;;;;;;;;;-1.17;100.00;92310.13;1050766;56;20160;-84
2021/03/14 05:28:21;;;;;;;;;;;;;;;-1.21;100.00;92315.31;1052867;56;20189;-83
2021/03/14 05:29:22;;;;;;;;;;;;;;;-1.21;100.00;92320.56;1050370;56;20792;-82
2021/03/14 05:30:24;;;;;;;;;;;;;;;-1.13;100.00;92311.66;1048637;56;20263;-81
2021/03/14 05:31:32;;;;;;;;;;;;;;;-1.24;100.00;92313.41;1048665;56;20141;-82
2021/03/14 05:32:33;;;;;;;;;;;;;;;-1.23;100.00;92316.78;1048964;56;20112;-82
2021/03/14 05:33:33;;;;;;;;;;;;;;;-1.13;100.00;92321.41;1052452;56;20121;-83
2021/03/14 05:34:33;;;;;;;;;;;;;;;-1.22;100.00;92321.69;1050807;56;20249;-82
2021/03/14 05:35:34;;;;;;;;;;;;;;;-1.27;100.00;92320.16;1050901;56;20268;-83
2021/03/14 05:36:34;;;;;;;;;;;;;;;-1.28;100.00;92323.88;1052681;56;20127;-82
2021/03/14 05:37:35;;;;;;;;;;;;;;;-1.30;100.00;92326.09;1048611;56;20186;-83
2021/03/14 05:38:35;;;;;;;;;;;;;;;-1.27;100.00;92322.03;1046563;57;20130;-83
2021/03/14 05:40:38;;;;;;;;;;;;;;;-1.24;100.00;92318.66;1059369;48;21172;-84
2021/03/14 05:41:39;;;;;;;;;;;;;;;-1.26;100.00;92323.53;1047893;56;20149;-83
2021/03/14 05:42:40;;;;;;;;;;;;;;;-1.25;100.00;92332.87;1046173;56;20196;-82
2021/03/14 05:43:41;;;;;;;;;;;;;;;-1.29;100.00;92332.84;1046507;57;21079;-83
2021/03/14 05:44:42;;;;;;;;;;;;;;;-1.28;100.00;92334.34;1050802;56;20169;-84
2021/03/14 05:45:42;;;;;;;;;;;;;;;-1.29;100.00;92330.22;1050668;56;20166;-83
2021/03/14 05:47:59;;;;;;;;;;;;;;;-1.21;100.00;92341.53;1320520;39;20256;31
2021/03/14 05:49:03;;;;;;;;;;;;;;;-1.16;100.00;92330.72;1366374;39;20155;31
2021/03/14 05:52:16;;;;;;;;;;;;;;;-1.23;99.53;92343.00;1440809;39;20220;31
2021/03/14 05:55:30;;;;;;;;;;;;;;;-1.23;99.79;92340.37;1061390;48;20186;-82
2021/03/14 06:00:02;;;;;;;;;;;;;;;-1.29;99.46;92359.06;1067752;48;20108;-85
2021/03/14 06:02:16;;;;;;;;;;;;;;;-1.23;99.16;92361.34;1067634;48;20112;-81
2021/03/14 06:03:17;;;;;;;;;;;;;;;-1.28;99.14;92362.44;1052659;56;20141;-84
2021/03/14 06:05:25;;;;;;;;;;;;;;;-1.25;100.00;92366.97;1298204;39;20209;31
2021/03/14 06:06:29;;;;;;;;;;;;;;;-1.13;100.00;92371.22;1428030;39;20245;31
2021/03/14 06:07:30;;;;;;;;;;;;;;;-1.14;100.00;92382.78;1331284;39;20317;-83
2021/03/14 06:08:34;;;;;;;;;;;;;;;-1.37;100.00;92380.31;1181116;39;20117;31
2021/03/14 06:09:34;;;;;;;;;;;;;;;-1.34;100.00;92367.25;1053997;49;20105;-84
2021/03/14 06:10:35;;;;;;;;;;;;;;;-1.35;100.00;92370.25;1048676;56;20102;-81
2021/03/14 06:11:35;;;;;;;;;;;;;;;-1.40;100.00;92362.72;1048936;56;20211;-84
2021/03/14 06:12:36;;;;;;;;;;;;;;;-1.41;100.00;92371.66;1046811;57;20596;-84
2021/03/14 06:13:36;;;;;;;;;;;;;;;-1.50;100.00;92364.09;1049060;57;20196;-83
2021/03/14 06:15:53;;;;;;;;;;;;;;;-1.54;100.00;92369.31;1365810;39;20215;31
2021/03/14 06:16:58;;;;;;;;;;;;;;;-1.49;100.00;92385.78;1426529;39;20235;31
2021/03/14 06:18:02;;;;;;;;;;;;;;;-1.42;100.00;92389.25;1234344;39;20294;31
2021/03/14 06:19:16;;;;;;;;;;;;;;;-1.46;98.79;92377.22;1283781;39;20231;31
2021/03/14 06:20:38;;;;;;;;;;;;;;;-1.42;98.93;92380.66;1432421;39;20112;31
2021/03/14 06:21:42;;;;;;;;;;;;;;;-1.35;99.85;92388.59;1437836;39;20316;31
2021/03/14 06:24:08;;;;;;;;;;;;;;;-1.25;100.00;92395.06;1069871;48;20215;-84
2021/03/14 06:26:14;;;;;;;;;;;;;;;-1.42;99.83;92417.34;1060161;48;20097;-83
2021/03/14 06:27:27;;;;;;;;;;;;;;;-1.45;100.00;92418.03;1052877;56;20108;-83
2021/03/14 06:28:35;;;;;;;;;;;;;;;-1.53;100.00;92423.22;1051612;56;20105;-84
2021/03/14 06:29:38;;;;;;;;;;;;;;;-1.51;100.00;92428.09;1053281;56;20293;-84
2021/03/14 06:33:29;;;;;;;;;;;;;;;-1.39;100.00;92417.37;1502917;39;20221;31
2021/03/14 06:34:34;;;;;;;;;;;;;;;-1.44;100.00;92422.19;1424632;39;20246;31
2021/03/14 06:38:27;;;;;;;;;;;;;;;-1.44;100.00;92438.66;1054853;48;20238;-83
2021/03/14 06:39:29;;;;;;;;;;;;;;;-1.31;100.00;92431.31;1050187;56;20125;-84